Garfield, AR (72732)

10:31 AM CDT on April 18, 2015 (GMT -0500)
Avoca | | Change Station
CLOSE
Current Station
Personal Weather Station
Location: Rogers, AR
Elevation: 1348 ft
Nearby Weather Stations

Elev 1348 ft 36.41 °N, 94.07 °W | Updated 3 minutes ago

Rain
Rain
62.1 °F
Feels Like 62.1 °F
N
0.0
Wind Variable Wind from West

Today
High -- | Low -- °F
--% Chance of Precip.
Yesterday
High -- | Low -- °F
Precip. -- in
6:38 AM 7:52 PM
Waning Crescent, 0% visible
Pressure 30.00 in
Visibility 10.0 miles
Clouds Few 500 ft
Scattered Clouds 1000 ft
Overcast 3800 ft
Dew Point 62 °F
Humidity 99%
Rainfall 0.12 in
Snow Depth Not available.
UV 2 out of 12
Pollen 3.30 out of 12
Air Quality Not available.
Flu Activity Sporadic
METAR KROG 181457Z 31005KT 10SM -RA FEW005 SCT010 OVC038 16/14 A3002 RMK AO2 RAB1359 SLP158 P0000 60000 T01560144 51022

More Conditions Fewer Conditions

Pressure 30.00 in
Visibility 10.0 miles
Clouds Few 500 ft
Scattered Clouds 1000 ft
Overcast 3800 ft
Dew Point 62 °F
Humidity 99%
Rainfall 0.12 in
Snow Depth Not available.
UV 2 out of 12
Pollen 3.30 out of 12
Air Quality Not available.
Flu Activity Sporadic
METAR KROG 181457Z 31005KT 10SM -RA FEW005 SCT010 OVC038 16/14 A3002 RMK AO2 RAB1359 SLP158 P0000 60000 T01560144 51022

More Conditions Fewer Conditions

Nowcast | as of 10:21 am CDT on April 18, 2015

At 10:15 am...Doppler radar indicated showers and light rain across far eastern Oklahoma and also portions of northwest Arkansas...generally east of a line from Talihina to Muskogee to South Coffeyville. The precipitation was slowly weakening...as it moved to the north northeast around 30 mph. Some rainfall rates were between a tenth and quarter inch per hour. Through noon...the precipitation will continue to weaken and shift to the north and east. Isolated thunderstorms will be possible...mainly over northwest Arkansas for the rest of the morning.

×

10-Day Weather Forecast

Almanac

Astronomy

Apr. 18, 2015 Rise Set
Actual Time
Civil Twilight
Nautical Twilight
Astronomical Twilight
Moon
Length of Visible Light
Length of Day
Tomorrow will be .
, % of the Moon is Illuminated

Today's Extremes

State Highs State Lows

Community

WunderPhotos

Upload Photos

1,814,435 photos uploaded!

WunderBlogs® & News

Nearby

Air Quality

  Air Quality AQ Index Pollutant
Not available.

Snow Depth

Station Depth Elevation

Earthquake Activity

City Distance Mag. Time & Date
Minimum magnitude displayed is 2.5.

Coastal Water Temperatures

Place Temperature

Stations

Nearby Weather Stations

Station Location Temp. Windchill Dew Point Humidity Wind Precip. Elev Updated Type